createdAt,value
2017-10-09T00:00:25.232Z,72.52
2017-10-09T00:02:52.725Z,73.15
2017-10-09T00:05:20.210Z,74.16
2017-10-09T00:07:47.656Z,75.28
2017-10-09T00:10:15.178Z,74.48
2017-10-09T00:12:42.640Z,74.63
2017-10-09T00:15:10.152Z,74.96
2017-10-09T00:17:37.634Z,75.13
2017-10-09T00:20:05.130Z,76.29
2017-10-09T00:22:32.592Z,75.38
2017-10-09T00:25:00.076Z,75.59
2017-10-09T00:27:27.585Z,75.88
2017-10-09T00:29:55.063Z,76.53
2017-10-09T00:32:22.543Z,76.72
2017-10-09T00:34:50.007Z,76.62
2017-10-09T00:37:17.562Z,76.17
2017-10-09T00:39:45.041Z,76.44
2017-10-09T00:42:12.497Z,75.60
2017-10-09T00:44:39.995Z,73.34
2017-10-09T00:47:07.491Z,74.25
2017-10-09T00:49:34.965Z,72.90
2017-10-09T00:52:02.453Z,68.37
2017-10-09T00:54:29.979Z,66.93
2017-10-09T00:56:57.422Z,67.62
2017-10-09T00:59:24.890Z,67.87
2017-10-09T01:01:52.384Z,68.95
2017-10-09T01:04:19.841Z,68.08
2017-10-09T01:06:47.394Z,68.26
2017-10-09T01:09:20.389Z,68.48
2017-10-09T01:11:47.858Z,69.45
2017-10-09T01:14:15.318Z,69.60
2017-10-09T01:16:42.844Z,69.87
2017-10-09T01:19:10.330Z,70.92
2017-10-09T01:21:37.811Z,71.66
2017-10-09T01:24:05.312Z,71.49
2017-10-09T01:26:32.790Z,72.90
2017-10-09T01:29:00.259Z,73.50
2017-10-09T01:31:27.749Z,74.43
2017-10-09T01:33:55.329Z,75.25
2017-10-09T01:36:22.824Z,75.86
2017-10-09T01:38:50.322Z,77.22
2017-10-09T01:41:17.802Z,77.95
2017-10-09T01:43:45.260Z,78.34
2017-10-09T01:46:12.799Z,77.95
2017-10-09T01:48:40.282Z,77.59
2017-10-09T01:51:07.755Z,78.05
2017-10-09T01:53:35.287Z,77.83
2017-10-09T01:56:02.823Z,78.02
2017-10-09T01:58:30.298Z,77.95
2017-10-09T02:00:57.780Z,78.27
2017-10-09T02:03:25.250Z,78.13
2017-10-09T02:05:52.721Z,77.91
2017-10-09T02:08:20.232Z,77.99
2017-10-09T02:10:47.702Z,77.86
2017-10-09T02:13:15.170Z,77.47
2017-10-09T02:15:42.654Z,77.63
2017-10-09T02:18:10.131Z,77.02
2017-10-09T02:20:37.624Z,77.75
2017-10-09T02:23:05.175Z,77.77
2017-10-09T02:25:32.680Z,77.11
2017-10-09T02:28:00.165Z,77.21
2017-10-09T02:30:27.667Z,77.23
2017-10-09T02:32:55.153Z,77.00
2017-10-09T02:35:22.605Z,77.85
2017-10-09T02:37:50.097Z,77.43
2017-10-09T02:40:17.573Z,77.40
2017-10-09T02:42:45.781Z,78.13
2017-10-09T02:45:13.260Z,77.93
2017-10-09T02:47:40.728Z,77.69
2017-10-09T02:50:08.194Z,78.26
2017-10-09T02:52:35.765Z,77.60
2017-10-09T02:55:03.251Z,77.57
2017-10-09T02:57:30.718Z,78.48
2017-10-09T02:59:58.235Z,78.51
2017-10-09T03:02:25.690Z,78.09
2017-10-09T03:04:53.149Z,77.58
2017-10-09T03:07:20.648Z,77.13
2017-10-09T03:09:48.137Z,76.90
2017-10-09T03:12:15.593Z,76.42
2017-10-09T03:14:43.077Z,76.84
2017-10-09T03:17:10.552Z,76.39
2017-10-09T03:19:38.040Z,76.00
2017-10-09T03:22:05.571Z,76.04
2017-10-09T03:24:35.821Z,76.44
2017-10-09T03:27:18.217Z,77.04
2017-10-09T03:29:49.034Z,77.54
2017-10-09T03:32:16.487Z,76.91
2017-10-09T03:34:43.981Z,76.31
2017-10-09T03:37:11.470Z,75.19
2017-10-09T03:39:38.941Z,74.75
2017-10-09T03:42:06.448Z,75.14
2017-10-09T03:44:33.923Z,74.58
2017-10-09T03:47:01.399Z,75.10
2017-10-09T03:49:28.879Z,74.62
2017-10-09T03:51:56.361Z,75.07
2017-10-09T03:54:23.845Z,75.35
2017-10-09T03:56:51.321Z,75.42
2017-10-09T03:59:18.824Z,75.89
2017-10-09T04:01:46.283Z,75.93
2017-10-09T04:04:13.767Z,76.42
2017-10-09T04:06:41.232Z,76.63
2017-10-09T04:09:08.704Z,76.78
2017-10-09T04:11:36.214Z,76.40
2017-10-09T04:14:03.667Z,76.20
2017-10-09T04:16:31.118Z,77.67
2017-10-09T04:18:58.609Z,79.03
2017-10-09T04:21:26.085Z,79.86
2017-10-09T04:23:53.545Z,78.87
2017-10-09T04:26:21.033Z,79.17
2017-10-09T04:28:48.510Z,79.19
2017-10-09T04:31:15.980Z,79.10
2017-10-09T04:33:43.493Z,78.89
2017-10-09T04:36:11.412Z,79.46
2017-10-09T04:38:38.929Z,79.11
2017-10-09T04:41:06.393Z,79.45
2017-10-09T04:43:33.850Z,79.66
2017-10-09T04:46:01.322Z,78.99
2017-10-09T04:48:28.801Z,79.76
2017-10-09T04:50:56.314Z,79.08
2017-10-09T04:53:23.775Z,78.53
2017-10-09T04:55:51.284Z,79.77
2017-10-09T04:58:18.738Z,78.89
2017-10-09T05:00:46.214Z,78.20
2017-10-09T05:03:13.801Z,78.45
2017-10-09T05:05:41.271Z,78.73
2017-10-09T05:08:08.737Z,78.31
2017-10-09T05:10:36.201Z,78.30
2017-10-09T05:13:03.686Z,78.24
2017-10-09T05:15:31.199Z,78.29
2017-10-09T05:17:58.660Z,79.11
2017-10-09T05:20:26.154Z,79.90
2017-10-09T05:22:53.641Z,80.59
2017-10-09T05:25:21.126Z,79.82
2017-10-09T05:27:48.594Z,79.32
2017-10-09T05:30:16.045Z,78.68
2017-10-09T05:32:43.572Z,79.11
2017-10-09T05:35:11.067Z,79.10
2017-10-09T05:37:38.541Z,78.91
2017-10-09T05:40:06.046Z,78.48
2017-10-09T05:42:33.527Z,78.65
2017-10-09T05:45:00.982Z,79.03
2017-10-09T05:47:28.463Z,78.63
2017-10-09T05:49:55.906Z,78.45
2017-10-09T05:52:23.389Z,78.75
2017-10-09T05:54:50.884Z,78.44
2017-10-09T05:57:18.357Z,78.42
2017-10-09T05:59:45.801Z,77.80
2017-10-09T06:02:13.477Z,77.65
2017-10-09T06:04:40.946Z,76.74
2017-10-09T06:07:09.370Z,76.12
2017-10-09T06:09:36.923Z,76.35
2017-10-09T06:12:04.382Z,76.29
2017-10-09T06:14:32.914Z,76.17
2017-10-09T06:17:00.406Z,75.21
2017-10-09T06:19:27.877Z,75.44
2017-10-09T06:21:55.942Z,75.28
2017-10-09T06:24:23.427Z,75.35
2017-10-09T06:26:50.881Z,74.48
2017-10-09T06:29:18.345Z,74.44
2017-10-09T06:31:45.832Z,73.65
2017-10-09T06:34:13.298Z,73.49
2017-10-09T06:36:40.782Z,73.23
2017-10-09T06:39:08.267Z,73.44
2017-10-09T06:41:35.721Z,72.73
2017-10-09T06:44:03.221Z,71.91
2017-10-09T06:46:30.718Z,71.46
2017-10-09T06:48:58.189Z,71.60
2017-10-09T06:51:25.664Z,70.71
2017-10-09T06:53:53.136Z,70.33
2017-10-09T06:56:20.600Z,69.39
2017-10-09T06:58:48.108Z,68.64
2017-10-09T07:01:15.576Z,68.00
2017-10-09T07:03:43.053Z,67.48
2017-10-09T07:06:10.510Z,67.88
2017-10-09T07:08:37.989Z,66.75
2017-10-09T07:11:05.457Z,63.32
2017-10-09T07:13:32.928Z,63.68
2017-10-09T07:16:00.423Z,64.66
2017-10-09T07:18:27.950Z,64.63
2017-10-09T07:20:55.407Z,64.48
2017-10-09T07:23:22.887Z,64.16
2017-10-09T07:25:50.365Z,62.96
2017-10-09T07:28:17.829Z,62.23
2017-10-09T07:30:45.338Z,62.30
2017-10-09T07:33:12.796Z,60.59
2017-10-09T07:35:40.260Z,58.70
2017-10-09T07:38:07.749Z,60.24
2017-10-09T07:40:35.217Z,58.37
2017-10-09T07:43:02.676Z,58.68
2017-10-09T07:45:30.156Z,56.26
2017-10-09T07:47:57.691Z,57.54
2017-10-09T07:50:25.200Z,56.47
2017-10-09T07:52:52.668Z,57.23
2017-10-09T07:55:20.110Z,56.90
2017-10-09T07:57:47.571Z,55.29
2017-10-09T08:00:15.046Z,55.99
2017-10-09T08:02:42.507Z,56.19
2017-10-09T08:05:10.026Z,55.98
2017-10-09T08:07:37.537Z,55.48
2017-10-09T08:10:04.993Z,54.31
2017-10-09T08:12:32.457Z,53.61
2017-10-09T08:14:59.958Z,52.81
2017-10-09T08:17:27.849Z,52.09
2017-10-09T08:19:55.370Z,50.06
2017-10-09T08:22:22.837Z,48.82
2017-10-09T08:24:50.354Z,50.63
2017-10-09T08:27:17.799Z,50.91
2017-10-09T08:29:45.282Z,51.48
2017-10-09T08:32:12.744Z,46.89
2017-10-09T08:34:40.210Z,44.66
2017-10-09T08:37:07.738Z,46.06
2017-10-09T08:39:35.218Z,47.31
2017-10-09T08:42:02.716Z,47.91
2017-10-09T08:44:30.206Z,43.17
2017-10-09T08:46:57.689Z,42.88
2017-10-09T08:49:25.146Z,44.59
2017-10-09T08:51:52.645Z,41.75
2017-10-09T08:54:20.110Z,41.40
2017-10-09T08:56:47.607Z,41.43
2017-10-09T08:59:15.117Z,41.63
2017-10-09T09:01:42.569Z,42.25
2017-10-09T09:04:10.036Z,43.01
2017-10-09T09:06:37.527Z,43.29
2017-10-09T09:09:05.010Z,41.95
2017-10-09T09:11:32.481Z,43.43
2017-10-09T09:13:59.947Z,44.04
2017-10-09T09:16:27.416Z,44.04
2017-10-09T09:18:54.914Z,44.04
2017-10-09T09:21:22.421Z,44.46
2017-10-09T09:23:49.993Z,44.73
2017-10-09T09:26:17.445Z,44.32
2017-10-09T09:28:44.925Z,44.96
2017-10-09T09:31:12.405Z,45.48
2017-10-09T09:33:39.853Z,45.54
2017-10-09T09:36:07.320Z,46.73
2017-10-09T09:38:34.910Z,47.41
2017-10-09T09:41:02.380Z,46.49
2017-10-09T09:43:29.939Z,47.69
2017-10-09T09:45:57.388Z,47.48
2017-10-09T09:48:24.893Z,46.47
2017-10-09T09:50:52.444Z,47.08
2017-10-09T10:06:15.089Z,46.47
2017-10-09T10:08:42.552Z,46.68
2017-10-09T10:11:10.007Z,45.95
2017-10-09T10:13:37.473Z,46.66
2017-10-09T10:16:04.936Z,47.74
2017-10-09T10:18:32.402Z,48.38
2017-10-09T10:20:59.869Z,48.29
2017-10-09T10:23:27.337Z,48.83
2017-10-09T10:25:54.802Z,48.79
2017-10-09T10:28:22.278Z,48.80
2017-10-09T10:30:49.732Z,48.95
2017-10-09T10:33:17.201Z,49.04
2017-10-09T10:35:44.689Z,48.64
2017-10-09T10:38:12.145Z,49.04
2017-10-09T10:40:39.670Z,48.53
2017-10-09T10:43:07.142Z,47.47
2017-10-09T10:45:34.624Z,46.53
2017-10-09T10:48:02.081Z,47.61
2017-10-09T10:50:29.556Z,47.88
2017-10-09T10:52:57.056Z,47.26
2017-10-09T10:55:24.532Z,47.40
2017-10-09T10:57:52.002Z,47.20
2017-10-09T11:00:19.470Z,47.64
2017-10-09T11:02:46.932Z,47.40
2017-10-09T11:05:14.418Z,46.52
2017-10-09T11:07:41.896Z,46.70
2017-10-09T11:10:09.387Z,46.57
2017-10-09T11:12:36.848Z,46.95
2017-10-09T11:15:04.306Z,46.60
2017-10-09T11:17:32.740Z,47.88
2017-10-09T11:20:00.230Z,48.05
2017-10-09T11:22:27.739Z,48.14
2017-10-09T11:24:55.185Z,48.14
2017-10-09T11:27:22.678Z,47.89
2017-10-09T11:29:50.121Z,47.04
2017-10-09T11:32:17.584Z,46.84
2017-10-09T11:34:45.046Z,45.53
2017-10-09T11:37:12.538Z,45.83
2017-10-09T11:39:40.002Z,45.14
2017-10-09T11:42:07.502Z,43.93
2017-10-09T11:44:34.986Z,44.32
2017-10-09T11:47:02.468Z,44.32
2017-10-09T11:49:29.959Z,44.32
2017-10-09T11:51:57.436Z,44.43
2017-10-09T11:54:24.921Z,43.68
2017-10-09T11:56:52.409Z,43.21
2017-10-09T11:59:19.882Z,41.92
2017-10-09T12:01:47.337Z,41.72
2017-10-09T12:04:14.815Z,43.43
2017-10-09T12:06:42.278Z,44.81
2017-10-09T12:09:09.776Z,44.79
2017-10-09T12:11:37.312Z,45.40
2017-10-09T12:14:04.764Z,46.12
2017-10-09T12:16:32.216Z,46.78
2017-10-09T12:18:59.672Z,47.18
2017-10-09T12:21:27.150Z,47.59
2017-10-09T12:23:54.620Z,46.72
2017-10-09T12:26:22.128Z,46.57
2017-10-09T12:28:49.593Z,46.86
2017-10-09T12:31:17.041Z,46.82
2017-10-09T12:33:44.505Z,46.93
2017-10-09T12:36:12.058Z,46.09
2017-10-09T12:38:39.505Z,45.82
2017-10-09T12:41:07.022Z,45.74
2017-10-09T12:43:34.497Z,45.97
2017-10-09T12:46:01.981Z,45.45
2017-10-09T12:48:29.472Z,44.91
2017-10-09T12:50:56.966Z,44.19
2017-10-09T12:53:24.442Z,44.15
2017-10-09T12:55:51.930Z,44.02
2017-10-09T12:58:19.392Z,44.15
2017-10-09T13:00:46.857Z,44.42
2017-10-09T13:03:14.379Z,44.43
2017-10-09T13:05:41.836Z,44.98
2017-10-09T13:08:09.287Z,45.74
2017-10-09T13:10:36.761Z,46.31
2017-10-09T13:13:04.212Z,46.76
2017-10-09T13:15:31.678Z,46.94
2017-10-09T13:17:59.147Z,46.38
2017-10-09T13:20:26.630Z,46.23
2017-10-09T13:22:54.094Z,46.34
2017-10-09T13:25:21.638Z,46.55
2017-10-09T13:27:49.108Z,46.15
2017-10-09T13:30:16.571Z,45.09
2017-10-09T13:32:44.068Z,43.70
2017-10-09T13:35:11.524Z,42.38
2017-10-09T13:37:39.645Z,42.65
2017-10-09T13:40:07.154Z,41.72
2017-10-09T13:42:34.601Z,41.58
2017-10-09T13:45:02.116Z,41.77
2017-10-09T13:47:29.598Z,43.00
2017-10-09T13:49:57.098Z,44.03
2017-10-09T13:52:24.569Z,44.92
2017-10-09T13:54:52.052Z,44.78
2017-10-09T13:57:19.536Z,44.57
2017-10-09T13:59:47.000Z,44.48
2017-10-09T14:02:14.465Z,44.68
2017-10-09T14:04:41.936Z,45.27
2017-10-09T14:07:09.415Z,45.86
2017-10-09T14:09:36.900Z,46.58
2017-10-09T14:12:04.365Z,46.62
2017-10-09T14:14:31.855Z,46.84
2017-10-09T14:16:59.323Z,46.76
2017-10-09T14:19:26.781Z,46.90
2017-10-09T14:21:54.262Z,47.23
2017-10-09T14:24:21.788Z,47.53
2017-10-09T14:26:49.262Z,46.81
2017-10-09T14:29:16.713Z,48.49
2017-10-09T14:41:34.133Z,55.29
2017-10-09T14:44:01.669Z,55.88
2017-10-09T14:46:29.206Z,56.16
2017-10-09T14:48:56.703Z,56.84
2017-10-09T14:51:24.242Z,57.00
2017-10-09T14:53:51.703Z,57.28
2017-10-09T14:56:19.187Z,57.69
2017-10-09T14:58:46.648Z,58.88
2017-10-09T15:01:14.140Z,59.39
2017-10-09T15:03:41.583Z,59.33
2017-10-09T15:06:09.734Z,59.44
2017-10-09T15:08:37.278Z,57.96
2017-10-09T15:11:04.742Z,55.79
2017-10-09T15:13:32.208Z,52.21
2017-10-09T15:15:59.689Z,51.96
2017-10-09T15:18:27.186Z,55.28
2017-10-09T15:20:54.635Z,55.74
2017-10-09T15:23:22.100Z,56.98
2017-10-09T15:25:49.582Z,56.81
2017-10-09T15:28:17.042Z,55.80
2017-10-09T15:30:44.528Z,54.42
2017-10-09T15:33:12.013Z,57.47
2017-10-09T15:35:39.490Z,58.71
2017-10-09T15:38:06.979Z,57.89
2017-10-09T15:40:34.468Z,56.60
2017-10-09T15:43:01.924Z,55.16
2017-10-09T15:45:29.489Z,55.48
2017-10-09T15:47:56.940Z,58.35
2017-10-09T15:50:24.421Z,58.75
2017-10-09T15:52:51.892Z,59.59
2017-10-09T15:55:19.377Z,60.68
2017-10-09T15:57:46.849Z,62.34
2017-10-09T16:00:14.389Z,64.40
2017-10-09T16:02:41.886Z,64.62
2017-10-09T16:05:09.385Z,65.33
2017-10-09T16:07:36.864Z,66.10
2017-10-09T16:10:04.345Z,66.25
2017-10-09T16:12:32.143Z,67.29
2017-10-09T16:14:59.625Z,68.24
2017-10-09T16:17:27.103Z,68.37
2017-10-09T16:19:54.563Z,67.72
2017-10-09T16:22:22.068Z,68.24
2017-10-09T16:24:49.513Z,69.09
2017-10-09T16:27:16.981Z,69.17
2017-10-09T16:29:44.528Z,69.57
2017-10-09T16:32:12.023Z,69.95
2017-10-09T16:34:39.495Z,69.90
2017-10-09T16:37:07.017Z,70.74
2017-10-09T16:39:34.521Z,70.22
2017-10-09T16:42:01.992Z,70.81
2017-10-09T16:44:29.483Z,70.69
2017-10-09T16:46:56.946Z,71.48
2017-10-09T16:49:24.427Z,71.80
2017-10-09T16:51:52.003Z,72.45
2017-10-09T16:54:19.514Z,71.79
2017-10-09T16:56:47.405Z,72.96
2017-10-09T16:59:14.885Z,72.90
2017-10-09T17:01:42.351Z,72.60
2017-10-09T17:04:09.821Z,72.29
2017-10-09T17:06:37.299Z,72.05
2017-10-09T17:09:04.809Z,72.37
2017-10-09T17:11:32.274Z,72.58
2017-10-09T17:13:59.811Z,72.08
2017-10-09T17:16:27.284Z,72.22
2017-10-09T17:18:54.742Z,72.23
2017-10-09T17:21:22.220Z,72.64
2017-10-09T17:23:49.702Z,72.72
2017-10-09T17:26:17.163Z,72.83
2017-10-09T17:28:44.643Z,72.98
2017-10-09T17:31:12.131Z,72.97
2017-10-09T17:33:39.612Z,72.77
2017-10-09T17:36:07.195Z,73.03
2017-10-09T17:38:34.758Z,73.65
2017-10-09T17:41:02.285Z,73.58
2017-10-09T17:43:29.788Z,73.71
2017-10-09T17:45:57.286Z,73.52
2017-10-09T17:48:25.205Z,72.56
2017-10-09T17:50:52.690Z,73.24
2017-10-09T17:53:20.204Z,72.10
2017-10-09T17:55:47.666Z,72.55
2017-10-09T17:58:15.202Z,72.16
2017-10-09T18:00:42.745Z,72.53
2017-10-09T18:03:10.249Z,71.84
2017-10-09T18:05:37.750Z,72.54
2017-10-09T18:08:05.232Z,72.68
2017-10-09T18:10:32.757Z,71.99
2017-10-09T18:13:00.308Z,71.22
2017-10-09T18:15:27.819Z,71.44
2017-10-09T18:17:55.293Z,71.79
2017-10-09T18:20:22.815Z,72.38
2017-10-09T18:22:50.339Z,72.58
2017-10-09T18:25:18.218Z,72.37
2017-10-09T18:27:45.748Z,72.32
2017-10-09T18:30:13.236Z,71.99
2017-10-09T18:32:40.705Z,72.30
2017-10-09T18:35:08.191Z,72.36
2017-10-09T18:37:35.683Z,72.32
2017-10-09T18:40:03.192Z,72.89
2017-10-09T18:42:30.677Z,72.89
2017-10-09T18:44:58.149Z,72.48
2017-10-09T18:47:25.667Z,72.19
2017-10-09T18:49:53.518Z,71.56
2017-10-09T18:52:21.045Z,72.19
2017-10-09T18:54:48.512Z,71.86
2017-10-09T18:57:16.024Z,72.09
2017-10-09T18:59:43.784Z,72.26
2017-10-09T19:02:11.402Z,72.28
2017-10-09T19:04:38.957Z,72.61
2017-10-09T19:07:06.758Z,72.82
2017-10-09T19:09:34.276Z,72.74
2017-10-09T19:12:01.898Z,72.76
2017-10-09T19:14:29.380Z,72.34
2017-10-09T19:16:57.377Z,72.26
2017-10-09T19:19:25.096Z,72.70
2017-10-09T19:21:52.627Z,72.25
2017-10-09T19:24:20.092Z,72.93
2017-10-09T19:26:47.671Z,73.18
2017-10-09T19:29:15.120Z,73.02
2017-10-09T19:31:42.642Z,73.13
2017-10-09T19:34:10.551Z,72.85
2017-10-09T19:36:38.338Z,73.32
2017-10-09T19:39:05.956Z,73.14
2017-10-09T19:41:33.657Z,73.65
2017-10-09T19:44:01.268Z,73.31
2017-10-09T19:46:28.902Z,73.49
2017-10-09T19:48:56.505Z,73.58
2017-10-09T19:51:24.054Z,73.60
2017-10-09T19:53:52.536Z,73.63
2017-10-09T19:56:20.096Z,72.97
2017-10-09T19:58:47.574Z,73.27
2017-10-09T20:01:15.077Z,73.38
2017-10-09T20:03:42.588Z,73.14
2017-10-09T20:06:10.085Z,73.59
2017-10-09T20:08:37.584Z,74.11
2017-10-09T20:11:05.299Z,73.69
2017-10-09T20:13:32.816Z,73.20
2017-10-09T20:16:00.287Z,73.25
2017-10-09T20:18:30.847Z,73.75
2017-10-09T20:20:58.338Z,74.12
2017-10-09T20:23:25.796Z,74.33
2017-10-09T20:25:53.661Z,74.15
2017-10-09T20:28:21.145Z,74.10
2017-10-09T20:30:48.870Z,74.63
2017-10-09T20:33:16.355Z,74.39
2017-10-09T20:35:43.905Z,74.81
2017-10-09T20:38:11.423Z,74.35
2017-10-09T20:40:38.950Z,74.84
2017-10-09T20:43:06.452Z,74.86
2017-10-09T20:45:33.918Z,74.51
2017-10-09T20:48:01.828Z,74.45
2017-10-09T20:50:29.299Z,74.59
2017-10-09T20:52:56.794Z,75.04
2017-10-09T20:55:24.295Z,75.19
2017-10-09T20:57:51.781Z,75.25
2017-10-09T21:00:19.458Z,75.26
2017-10-09T21:02:47.213Z,75.43
2017-10-09T21:05:14.713Z,75.32
2017-10-09T21:07:42.253Z,75.83
2017-10-09T21:10:09.754Z,76.47
2017-10-09T21:12:37.263Z,76.76
2017-10-09T21:15:04.780Z,76.40
2017-10-09T21:17:32.324Z,76.99
2017-10-09T21:19:59.815Z,77.58
2017-10-09T21:22:27.328Z,77.78
2017-10-09T21:24:54.818Z,76.83
2017-10-09T21:27:22.309Z,77.42
2017-10-09T21:29:49.815Z,77.84
2017-10-09T21:32:17.280Z,77.57
2017-10-09T21:34:44.780Z,77.47
2017-10-09T21:37:12.274Z,77.71
2017-10-09T21:39:39.781Z,77.79
2017-10-09T21:42:07.262Z,77.11
2017-10-09T21:44:34.726Z,77.63
2017-10-09T21:47:02.270Z,78.02
2017-10-09T21:49:30.445Z,77.69
2017-10-09T21:51:57.984Z,78.22
2017-10-09T21:54:25.523Z,77.81
2017-10-09T21:56:52.994Z,78.05
2017-10-09T21:59:20.494Z,77.93
2017-10-09T22:01:48.098Z,77.94
2017-10-09T22:04:15.585Z,78.01
2017-10-09T22:06:43.068Z,78.04
2017-10-09T22:09:10.580Z,77.98
2017-10-09T22:11:38.081Z,77.33
2017-10-09T22:14:05.613Z,77.83
2017-10-09T22:16:33.080Z,77.75
2017-10-09T22:19:00.549Z,78.03
2017-10-09T22:21:28.013Z,77.48
2017-10-09T22:23:55.490Z,77.71
2017-10-09T22:26:23.013Z,77.73
2017-10-09T22:28:50.472Z,77.88
2017-10-09T22:31:18.516Z,77.51
2017-10-09T22:33:45.974Z,77.40
2017-10-09T22:36:13.458Z,77.46
2017-10-09T22:38:40.925Z,77.44
2017-10-09T22:41:08.395Z,77.51
2017-10-09T22:43:35.884Z,77.78
2017-10-09T22:46:03.355Z,77.40
2017-10-09T22:48:30.818Z,77.35
2017-10-09T22:50:58.502Z,77.71
2017-10-09T22:53:26.041Z,77.48
2017-10-09T22:55:53.531Z,77.50
2017-10-09T22:58:21.026Z,77.70
2017-10-09T23:00:48.511Z,77.49
2017-10-09T23:03:15.963Z,77.87
2017-10-09T23:05:43.412Z,77.89
2017-10-09T23:08:10.868Z,77.90
2017-10-09T23:10:38.337Z,77.50
2017-10-09T23:13:05.807Z,77.62
2017-10-09T23:15:33.280Z,77.55
2017-10-09T23:18:00.757Z,77.97
2017-10-09T23:20:28.230Z,78.13
2017-10-09T23:22:55.727Z,78.47
2017-10-09T23:25:23.185Z,78.55
2017-10-09T23:27:50.663Z,78.61
2017-10-09T23:30:18.144Z,78.65
2017-10-09T23:32:45.660Z,78.15
2017-10-09T23:35:13.124Z,78.93
2017-10-09T23:37:40.636Z,78.96
2017-10-09T23:40:08.105Z,78.83
2017-10-09T23:42:35.591Z,79.17
2017-10-09T23:45:03.073Z,78.53
2017-10-09T23:47:30.895Z,78.76
2017-10-09T23:49:58.386Z,78.60
2017-10-09T23:52:25.875Z,77.96
2017-10-09T23:54:53.348Z,78.04
2017-10-09T23:57:20.814Z,77.96
2017-10-09T23:59:48.281Z,77.17
